createdAt,value
2022-11-20T00:01:34.956Z,101471.38
2022-11-20T00:04:02.844Z,101488.72
2022-11-20T00:06:31.016Z,101486.97
2022-11-20T00:09:02.446Z,101492.13
2022-11-20T00:11:33.046Z,101487.81
2022-11-20T00:14:02.520Z,101476.59
2022-11-20T00:16:32.011Z,101483.53
2022-11-20T00:19:00.676Z,101480.91
2022-11-20T00:21:29.449Z,101482.72
2022-11-20T00:23:58.043Z,101489.75
2022-11-20T00:26:27.638Z,101497.41
2022-11-20T00:28:58.320Z,101508.78
2022-11-20T00:31:26.412Z,101521.91
2022-11-20T00:33:55.179Z,101534.19
2022-11-20T00:36:24.911Z,101535.03
2022-11-20T00:39:00.227Z,101533.25
2022-11-20T00:41:29.077Z,101519.34
2022-11-20T00:43:57.758Z,101506.28
2022-11-20T00:46:28.965Z,101494.94
2022-11-20T00:48:57.095Z,101487.03
2022-11-20T00:51:27.864Z,101478.28
2022-11-20T00:53:59.030Z,101481.72
2022-11-20T00:56:27.086Z,101482.72
2022-11-20T00:58:55.249Z,101481.75
2022-11-20T01:01:25.421Z,101464.41
2022-11-20T01:03:55.189Z,101451.53
2022-11-20T01:06:28.107Z,101442.16
2022-11-20T01:08:58.169Z,101443.88
2022-11-20T01:11:35.090Z,101436.84
2022-11-20T01:14:05.085Z,101446.44
2022-11-20T01:16:38.378Z,101455.13
2022-11-20T01:19:11.578Z,101453.47
2022-11-20T01:21:42.710Z,101440.47
2022-11-20T01:24:16.441Z,101446.56
2022-11-20T01:26:45.891Z,101456.94
2022-11-20T01:29:19.937Z,101446.56
2022-11-20T01:31:48.973Z,101451.94
2022-11-20T01:34:19.519Z,101444.03
2022-11-20T01:36:48.945Z,101424.00
2022-11-20T01:39:19.945Z,101420.53
2022-11-20T01:42:10.407Z,101447.41
2022-11-20T01:44:55.291Z,101456.09
2022-11-20T01:47:31.139Z,101445.63
2022-11-20T01:50:12.897Z,101429.97
2022-11-20T01:52:57.781Z,101412.53
2022-11-20T01:55:29.793Z,101395.25
2022-11-20T01:57:58.005Z,101418.84
2022-11-20T02:00:25.824Z,101410.06
2022-11-20T02:03:00.243Z,101378.03
2022-11-20T02:05:43.047Z,101406.69
2022-11-20T02:08:10.780Z,101408.25
2022-11-20T02:10:39.577Z,101436.16
2022-11-20T02:13:26.262Z,101431.84
2022-11-20T02:15:54.386Z,101436.88
2022-11-20T02:18:24.799Z,101421.31
2022-11-20T02:21:03.957Z,101423.16
2022-11-20T02:23:40.851Z,101427.56
2022-11-20T02:26:13.312Z,101438.06
2022-11-20T02:28:41.693Z,101431.16
2022-11-20T02:31:09.219Z,101437.06
2022-11-20T02:33:36.774Z,101448.38
2022-11-20T02:36:04.630Z,101452.66
2022-11-20T02:38:32.698Z,101447.47
2022-11-20T02:41:00.365Z,101443.97
2022-11-20T02:43:27.896Z,101443.97
2022-11-20T02:45:55.463Z,101452.75
2022-11-20T02:48:25.202Z,101434.59
2022-11-20T02:50:53.229Z,101423.38
2022-11-20T02:53:20.738Z,101410.28
2022-11-20T02:55:48.234Z,101401.63
2022-11-20T02:58:15.799Z,101399.03
2022-11-20T03:00:43.736Z,101411.13
2022-11-20T03:03:11.239Z,101424.97
2022-11-20T03:05:39.275Z,101420.47
2022-11-20T03:08:06.976Z,101428.19
2022-11-20T03:10:34.474Z,101435.19
2022-11-20T03:13:02.000Z,101431.75
2022-11-20T03:15:32.359Z,101421.31
2022-11-20T03:18:02.851Z,101418.66
2022-11-20T03:20:30.971Z,101424.06
2022-11-20T03:22:58.581Z,101430.25
2022-11-20T03:25:28.652Z,101407.69
2022-11-20T03:27:56.380Z,101414.81
2022-11-20T03:30:27.592Z,101408.78
2022-11-20T03:32:58.177Z,101407.84
2022-11-20T03:35:25.823Z,101422.59
2022-11-20T03:37:53.370Z,101435.53
2022-11-20T03:40:21.183Z,101464.25
2022-11-20T03:42:48.891Z,101475.56
2022-11-20T03:45:19.736Z,101466.94
2022-11-20T03:47:47.594Z,101479.97
2022-11-20T03:50:16.665Z,101481.78
2022-11-20T03:52:44.291Z,101481.75
2022-11-20T03:55:11.838Z,101489.47
2022-11-20T03:57:39.326Z,101492.00
2022-11-20T04:00:09.765Z,101482.59
2022-11-20T04:02:38.566Z,101494.88
2022-11-20T04:05:06.618Z,101480.09
2022-11-20T04:07:35.569Z,101487.91
2022-11-20T04:10:03.713Z,101484.38
2022-11-20T04:12:34.511Z,101477.50
2022-11-20T04:15:02.252Z,101471.47
2022-11-20T04:17:30.115Z,101473.19
2022-11-20T04:19:57.778Z,101471.53
2022-11-20T04:22:25.694Z,101454.13
2022-11-20T04:24:53.545Z,101443.72
2022-11-20T04:27:21.770Z,101434.25
2022-11-20T04:29:49.356Z,101431.69
2022-11-20T04:32:17.062Z,101460.25
2022-11-20T04:34:44.620Z,101473.25
2022-11-20T04:37:12.424Z,101459.38
2022-11-20T04:39:40.173Z,101455.81
2022-11-20T04:42:28.667Z,101448.75
2022-11-20T04:44:57.139Z,101435.72
2022-11-20T04:47:25.038Z,101439.25
2022-11-20T04:49:52.754Z,101439.31
2022-11-20T04:52:20.401Z,101434.13
2022-11-20T04:54:48.026Z,101450.69
2022-11-20T04:57:16.417Z,101457.63
2022-11-20T04:59:44.860Z,101465.44
2022-11-20T05:02:12.677Z,101465.34
2022-11-20T05:04:40.129Z,101456.53
2022-11-20T05:07:09.544Z,101438.31
2022-11-20T05:09:37.110Z,101465.38
2022-11-20T05:12:05.237Z,101466.19
2022-11-20T05:14:32.855Z,101462.72
2022-11-20T05:17:00.577Z,101459.19
2022-11-20T05:19:28.112Z,101470.44
2022-11-20T05:21:55.673Z,101455.72
2022-11-20T05:24:23.279Z,101467.03
2022-11-20T05:26:51.281Z,101468.69
2022-11-20T05:29:19.024Z,101478.22
2022-11-20T05:31:47.126Z,101482.63
2022-11-20T05:34:14.897Z,101485.22
2022-11-20T05:36:43.045Z,101486.97
2022-11-20T05:39:10.794Z,101480.13
2022-11-20T05:41:38.660Z,101479.31
2022-11-20T05:44:06.319Z,101470.66
2022-11-20T05:46:36.117Z,101472.41
2022-11-20T05:49:03.904Z,101470.63
2022-11-20T05:51:31.402Z,101449.81
2022-11-20T05:54:00.135Z,101436.88
2022-11-20T05:56:27.910Z,101423.06
2022-11-20T05:58:55.571Z,101436.97
2022-11-20T06:01:25.875Z,101440.31
2022-11-20T06:03:54.823Z,101429.81
2022-11-20T06:06:22.694Z,101428.19
2022-11-20T06:08:52.270Z,101428.19
2022-11-20T06:11:20.284Z,101430.78
2022-11-20T06:13:48.516Z,101430.78
2022-11-20T06:16:20.044Z,101442.13
2022-11-20T06:18:49.876Z,101440.41
2022-11-20T06:21:23.286Z,101434.25
2022-11-20T06:23:51.955Z,101430.91
2022-11-20T06:26:22.648Z,101430.84
2022-11-20T06:28:51.923Z,101431.72
2022-11-20T06:31:22.011Z,101444.72
2022-11-20T06:33:50.443Z,101465.53
2022-11-20T06:36:20.783Z,101454.22
2022-11-20T06:38:48.851Z,101434.16
2022-11-20T06:41:20.488Z,101425.56
2022-11-20T06:43:48.957Z,101422.19
2022-11-20T06:46:18.686Z,101411.75
2022-11-20T06:48:47.722Z,101416.84
2022-11-20T06:51:16.111Z,101415.91
2022-11-20T06:53:43.861Z,101407.22
2022-11-20T06:56:12.307Z,101391.69
2022-11-20T06:58:40.259Z,101399.50
2022-11-20T07:01:13.069Z,101409.03
2022-11-20T07:03:41.847Z,101410.78
2022-11-20T07:06:10.633Z,101423.88
2022-11-20T07:08:38.573Z,101428.19
2022-11-20T07:11:07.961Z,101425.63
2022-11-20T07:13:36.337Z,101425.59
2022-11-20T07:16:06.769Z,101428.13
2022-11-20T07:18:34.362Z,101446.41
2022-11-20T07:21:08.034Z,101449.81
2022-11-20T07:23:38.393Z,101449.72
2022-11-20T07:26:10.991Z,101451.53
2022-11-20T07:28:38.882Z,101455.09
2022-11-20T07:31:12.392Z,101477.66
2022-11-20T07:33:45.619Z,101470.63
2022-11-20T07:36:13.196Z,101470.72
2022-11-20T07:38:42.763Z,101455.88
2022-11-20T07:41:10.303Z,101448.13
2022-11-20T07:43:41.225Z,101445.47
2022-11-20T07:46:09.282Z,101466.25
2022-11-20T07:48:36.846Z,101480.19
2022-11-20T07:51:04.461Z,101481.03
2022-11-20T07:53:33.354Z,101448.06
2022-11-20T07:56:02.634Z,101440.16
2022-11-20T07:58:31.215Z,101456.66
2022-11-20T08:00:58.865Z,101441.88
2022-11-20T08:03:26.442Z,101443.47
2022-11-20T08:05:54.179Z,101475.69
2022-11-20T08:08:22.623Z,101486.09
2022-11-20T08:10:50.327Z,101447.00
2022-11-20T08:13:37.158Z,101419.25
2022-11-20T08:16:05.159Z,101422.63
2022-11-20T08:18:33.196Z,101415.63
2022-11-20T08:21:05.887Z,101411.22
2022-11-20T08:23:33.512Z,101406.94
2022-11-20T08:26:01.116Z,101386.13
2022-11-20T08:28:29.324Z,101372.22
2022-11-20T08:31:01.695Z,101388.75
2022-11-20T08:33:30.049Z,101383.38
2022-11-20T08:36:05.716Z,101361.63
2022-11-20T08:38:33.938Z,101361.69
2022-11-20T08:41:22.211Z,101350.50
2022-11-20T08:44:10.549Z,101331.34
2022-11-20T08:46:42.015Z,101322.59
2022-11-20T08:49:12.162Z,101324.44
2022-11-20T08:51:43.417Z,101324.47
2022-11-20T08:54:11.312Z,101318.34
2022-11-20T08:56:40.332Z,101306.13
2022-11-20T08:59:27.039Z,101292.28
2022-11-20T09:01:55.678Z,101289.69
2022-11-20T09:04:23.576Z,101300.09
2022-11-20T09:06:53.738Z,101294.84
2022-11-20T09:09:22.323Z,101293.97
2022-11-20T09:11:51.358Z,101304.47
2022-11-20T09:14:18.916Z,101287.03
2022-11-20T09:16:47.727Z,101255.75
2022-11-20T09:22:03.538Z,101244.47
2022-11-20T09:24:31.609Z,101251.28
2022-11-20T09:27:03.739Z,101258.13
2022-11-20T09:29:31.531Z,101251.19
2022-11-20T09:31:59.351Z,101247.75
2022-11-20T09:34:27.307Z,101259.06
2022-11-20T09:36:55.285Z,101270.44
2022-11-20T09:39:23.310Z,101260.06
2022-11-20T09:42:08.479Z,101253.06
2022-11-20T09:44:36.012Z,101256.44
2022-11-20T09:47:24.348Z,101241.72
2022-11-20T09:50:12.931Z,101232.13
2022-11-20T09:52:56.723Z,101227.72
2022-11-20T09:55:25.594Z,101223.47
2022-11-20T09:57:53.710Z,101213.00
2022-11-20T10:00:22.427Z,101208.59
2022-11-20T10:03:15.174Z,101207.63
2022-11-20T10:05:48.520Z,101213.56
2022-11-20T10:08:23.886Z,101211.06
2022-11-20T10:11:07.325Z,101210.91
2022-11-20T10:14:01.783Z,101208.50
2022-11-20T10:16:41.023Z,101207.78
2022-11-20T10:19:46.647Z,101201.59
2022-11-20T10:22:39.861Z,101195.47
2022-11-20T10:25:12.973Z,101198.03
2022-11-20T10:27:59.034Z,101199.66
2022-11-20T10:30:31.198Z,101208.44
2022-11-20T10:33:12.745Z,101181.44
2022-11-20T10:35:45.652Z,101166.69
2022-11-20T10:38:22.146Z,101151.03
2022-11-20T10:41:20.424Z,101131.16
2022-11-20T10:43:51.805Z,101119.88
2022-11-20T10:46:23.242Z,101123.31
2022-11-20T10:48:52.417Z,101123.34
2022-11-20T10:51:31.595Z,101121.66
2022-11-20T10:54:10.749Z,101127.78
2022-11-20T10:56:52.784Z,101132.28
2022-11-20T10:59:38.735Z,101124.44
2022-11-20T11:02:23.906Z,101108.66
2022-11-20T11:04:55.283Z,101088.78
2022-11-20T11:07:32.578Z,101108.69
2022-11-20T11:10:00.532Z,101120.84
2022-11-20T11:12:29.723Z,101139.13
2022-11-20T11:14:58.802Z,101146.94
2022-11-20T11:17:32.528Z,101119.13
2022-11-20T11:20:19.578Z,101078.34
2022-11-20T11:22:56.756Z,101077.56
2022-11-20T11:25:24.425Z,101090.59
2022-11-20T11:27:53.855Z,101087.22
2022-11-20T11:30:21.903Z,101080.13
2022-11-20T11:32:49.783Z,101074.00
2022-11-20T11:35:29.670Z,101072.25
2022-11-20T11:38:13.643Z,101077.53
2022-11-20T11:40:41.864Z,101075.75
2022-11-20T11:43:41.414Z,101075.72
2022-11-20T11:46:36.177Z,101079.16
2022-11-20T11:49:10.073Z,101076.56
2022-11-20T11:52:20.534Z,101090.50
2022-11-20T11:55:10.304Z,101065.38
2022-11-20T11:57:57.400Z,101070.59
2022-11-20T12:00:24.878Z,101074.00
2022-11-20T12:03:16.614Z,101076.47
2022-11-20T12:05:49.298Z,101084.47
2022-11-20T12:08:26.715Z,101079.09
2022-11-20T12:11:21.494Z,101075.75
2022-11-20T12:14:16.332Z,101082.69
2022-11-20T12:16:47.278Z,101084.38
2022-11-20T12:19:15.881Z,101084.31
2022-11-20T12:22:21.404Z,101074.00
2022-11-20T12:25:03.891Z,101059.16
2022-11-20T12:27:41.234Z,101057.47
2022-11-20T12:30:15.719Z,101053.81
2022-11-20T12:32:49.850Z,101073.00
2022-11-20T12:35:48.434Z,101074.75
2022-11-20T12:38:28.668Z,101067.88
2022-11-20T12:41:14.997Z,101053.13
2022-11-20T12:44:22.367Z,101055.75
2022-11-20T12:47:09.757Z,101055.81
2022-11-20T12:49:58.150Z,101058.38
2022-11-20T12:52:49.693Z,101040.19
2022-11-20T12:55:35.334Z,101029.81
2022-11-20T12:58:31.931Z,101018.44
2022-11-20T13:01:48.808Z,101021.06
2022-11-20T13:04:51.797Z,101023.66
2022-11-20T13:07:22.581Z,101014.13
2022-11-20T13:09:52.077Z,101015.84
2022-11-20T13:12:25.856Z,101015.84
2022-11-20T13:15:12.827Z,101016.72
2022-11-20T13:17:47.917Z,101003.84
2022-11-20T13:20:19.077Z,100999.44
2022-11-20T13:22:52.058Z,100998.66
2022-11-20T13:25:36.954Z,100990.78
2022-11-20T13:28:11.621Z,100975.94
2022-11-20T13:30:54.715Z,100972.38
2022-11-20T13:33:34.113Z,100963.75
2022-11-20T13:36:05.234Z,100968.16
2022-11-20T13:38:50.669Z,100964.72
2022-11-20T13:41:38.867Z,100961.13
2022-11-20T13:44:12.377Z,100947.25
2022-11-20T13:46:43.858Z,100936.75
2022-11-20T13:49:27.068Z,100950.63
2022-11-20T13:52:10.132Z,100939.28
2022-11-20T13:54:52.753Z,100968.00
2022-11-20T13:57:40.945Z,100984.63
2022-11-20T14:00:18.514Z,100979.34
2022-11-20T14:02:59.035Z,100942.75
2022-11-20T14:05:26.734Z,100913.34
2022-11-20T14:07:55.351Z,100912.38
2022-11-20T14:10:32.296Z,100910.59
2022-11-20T14:13:10.934Z,100908.88
2022-11-20T14:15:44.895Z,100907.16
2022-11-20T14:18:25.705Z,100890.78
2022-11-20T14:20:56.525Z,100901.25
2022-11-20T14:23:30.190Z,100895.91
2022-11-20T14:25:58.925Z,100902.84
2022-11-20T14:28:32.037Z,100908.91
2022-11-20T14:31:00.269Z,100901.91
2022-11-20T14:33:28.842Z,100905.44
2022-11-20T14:35:58.974Z,100905.41
2022-11-20T14:38:29.841Z,100899.28
2022-11-20T14:41:22.182Z,100899.16
2022-11-20T14:43:58.002Z,100896.56
2022-11-20T14:46:26.048Z,100879.91
2022-11-20T14:49:01.402Z,100879.19
2022-11-20T14:51:35.988Z,100882.59
2022-11-20T14:54:13.859Z,100877.38
2022-11-20T14:56:42.890Z,100872.13
2022-11-20T14:59:10.771Z,100859.00
2022-11-20T15:01:39.022Z,100865.06
2022-11-20T15:04:10.556Z,100859.97
2022-11-20T15:06:49.984Z,100860.03
2022-11-20T15:09:18.360Z,100850.28
2022-11-20T15:11:57.109Z,100860.91
2022-11-20T15:14:26.457Z,100870.41
2022-11-20T15:16:54.549Z,100866.91
2022-11-20T15:19:27.690Z,100875.47
2022-11-20T15:21:55.390Z,100881.47
2022-11-20T15:24:29.116Z,100882.34
2022-11-20T15:26:56.825Z,100878.91
2022-11-20T15:29:25.268Z,100863.94
2022-11-20T15:31:54.743Z,100831.00
2022-11-20T15:34:22.474Z,100832.63
2022-11-20T15:36:50.604Z,100816.09
2022-11-20T15:39:19.042Z,100806.59
2022-11-20T15:41:46.967Z,100808.34
2022-11-20T15:44:14.845Z,100812.00
2022-11-20T15:46:45.524Z,100816.34
2022-11-20T15:49:17.480Z,100805.97
2022-11-20T15:51:47.723Z,100815.34
2022-11-20T15:54:21.708Z,100802.28
2022-11-20T15:56:55.223Z,100807.41
2022-11-20T15:59:22.927Z,100810.88
2022-11-20T16:01:50.520Z,100805.66
2022-11-20T16:04:19.397Z,100803.91
2022-11-20T16:06:47.107Z,100801.41
2022-11-20T16:09:15.427Z,100815.31
2022-11-20T16:11:43.401Z,100850.06
2022-11-20T16:14:30.960Z,100857.81
2022-11-20T16:16:58.852Z,100843.72
2022-11-20T16:19:26.354Z,100826.34
2022-11-20T16:21:56.081Z,100831.69
2022-11-20T16:24:27.294Z,100817.69
2022-11-20T16:26:56.922Z,100808.06
2022-11-20T16:29:24.678Z,100790.75
2022-11-20T16:31:52.207Z,100781.16
2022-11-20T16:34:19.875Z,100782.97
2022-11-20T16:36:48.055Z,100784.63
2022-11-20T16:39:20.513Z,100772.59
2022-11-20T16:41:51.647Z,100775.94
2022-11-20T16:44:19.270Z,100767.28
2022-11-20T16:46:47.381Z,100754.31
2022-11-20T16:49:15.444Z,100742.88
2022-11-20T16:51:44.106Z,100742.06
2022-11-20T16:54:16.498Z,100735.03
2022-11-20T16:56:52.025Z,100725.50
2022-11-20T16:59:21.646Z,100710.69
2022-11-20T17:01:50.106Z,100711.47
2022-11-20T17:04:17.941Z,100728.97
2022-11-20T17:06:45.804Z,100704.44
2022-11-20T17:09:14.692Z,100711.47
2022-11-20T17:11:42.388Z,100707.84
2022-11-20T17:14:12.611Z,100699.09
2022-11-20T17:16:43.362Z,100682.50
2022-11-20T17:19:12.401Z,100683.38
2022-11-20T17:21:40.456Z,100687.72
2022-11-20T17:24:11.347Z,100702.47
2022-11-20T17:26:40.940Z,100704.16
2022-11-20T17:29:10.669Z,100692.75
2022-11-20T17:31:38.750Z,100690.19
2022-11-20T17:34:08.866Z,100688.47
2022-11-20T17:36:40.722Z,100677.19
2022-11-20T17:39:12.911Z,100663.16
2022-11-20T17:41:41.070Z,100666.66
2022-11-20T17:44:13.024Z,100670.03
2022-11-20T17:46:40.830Z,100663.00
2022-11-20T17:49:08.870Z,100646.44
2022-11-20T17:51:37.145Z,100634.19
2022-11-20T17:54:07.525Z,100632.25
2022-11-20T17:56:55.615Z,100629.53
2022-11-20T17:59:23.212Z,100634.66
2022-11-20T18:01:51.889Z,100640.75
2022-11-20T18:04:19.446Z,100634.63
2022-11-20T18:06:47.946Z,100651.03
2022-11-20T18:09:15.665Z,100641.41
2022-11-20T18:11:43.981Z,100612.63
2022-11-20T18:14:36.310Z,100634.22
2022-11-20T18:17:22.817Z,100628.84
2022-11-20T18:20:14.114Z,100620.97
2022-11-20T18:22:38.822Z,100611.31
2022-11-20T18:25:06.987Z,100612.22
2022-11-20T18:27:34.711Z,100609.28
2022-11-20T18:30:02.334Z,100606.72
2022-11-20T18:32:30.133Z,100599.56
2022-11-20T18:34:57.921Z,100609.09
2022-11-20T18:37:26.194Z,100602.84
2022-11-20T18:39:53.790Z,100601.78
2022-11-20T18:42:39.873Z,100595.69
2022-11-20T18:45:07.896Z,100589.41
2022-11-20T18:47:38.096Z,100583.38
2022-11-20T18:50:07.454Z,100591.91
2022-11-20T18:52:40.839Z,100583.16
2022-11-20T18:55:10.418Z,100577.00
2022-11-20T18:57:38.078Z,100569.09
2022-11-20T19:00:09.356Z,100572.47
2022-11-20T19:02:42.126Z,100568.97
2022-11-20T19:05:12.218Z,100554.91
2022-11-20T19:07:41.253Z,100560.91
2022-11-20T19:10:10.331Z,100556.53
2022-11-20T19:12:38.761Z,100547.72
2022-11-20T19:15:07.595Z,100554.66
2022-11-20T19:17:35.881Z,100548.47
2022-11-20T19:20:03.625Z,100543.97
2022-11-20T19:22:31.325Z,100547.25
2022-11-20T19:24:58.871Z,100546.41
2022-11-20T19:27:26.879Z,100539.34
2022-11-20T19:29:58.848Z,100531.44
2022-11-20T19:32:26.878Z,100523.59
2022-11-20T19:34:54.416Z,100521.75
2022-11-20T19:37:22.307Z,100513.91
2022-11-20T19:39:49.864Z,100514.75
2022-11-20T19:42:18.153Z,100510.25
2022-11-20T19:44:45.753Z,100518.03
2022-11-20T19:47:14.897Z,100519.88
2022-11-20T19:49:42.698Z,100515.31
2022-11-20T19:52:10.390Z,100527.44
2022-11-20T19:54:38.207Z,100523.16
2022-11-20T19:57:05.816Z,100531.56
2022-11-20T19:59:33.604Z,100520.25
2022-11-20T20:02:03.433Z,100520.09
2022-11-20T20:04:31.049Z,100516.75
2022-11-20T20:06:58.687Z,100513.16
2022-11-20T20:09:27.125Z,100507.94
2022-11-20T20:11:54.825Z,100519.16
2022-11-20T20:14:22.321Z,100513.16
2022-11-20T20:16:50.319Z,100527.06
2022-11-20T20:19:18.066Z,100512.25
2022-11-20T20:21:48.018Z,100519.31
2022-11-20T20:24:15.738Z,100519.13
2022-11-20T20:26:44.520Z,100515.59
2022-11-20T20:29:12.081Z,100513.16
2022-11-20T20:31:41.105Z,100504.50
2022-11-20T20:34:08.687Z,100502.75
2022-11-20T20:36:36.800Z,100496.66
2022-11-20T20:39:04.498Z,100508.72
2022-11-20T20:41:32.799Z,100500.13
2022-11-20T20:44:20.253Z,100503.34
2022-11-20T20:46:52.627Z,100507.53
2022-11-20T20:49:20.441Z,100503.91
2022-11-20T20:51:48.329Z,100509.25
2022-11-20T20:54:18.898Z,100510.03
2022-11-20T20:56:47.081Z,100506.47
2022-11-20T20:59:14.697Z,100502.78
2022-11-20T21:01:42.463Z,100505.28
2022-11-20T21:04:11.418Z,100507.03
2022-11-20T21:06:39.006Z,100500.75
2022-11-20T21:09:06.852Z,100499.88
2022-11-20T21:11:34.501Z,100501.41
2022-11-20T21:14:02.070Z,100502.38
2022-11-20T21:16:40.883Z,100503.97
2022-11-20T21:19:08.837Z,100502.06
2022-11-20T21:21:55.448Z,100494.13
2022-11-20T21:24:23.592Z,100492.22
2022-11-20T21:26:52.324Z,100487.06
2022-11-20T21:29:25.158Z,100492.22
2022-11-20T21:31:54.064Z,100486.91
2022-11-20T21:34:23.156Z,100477.22
2022-11-20T21:36:51.778Z,100479.84
2022-11-20T21:39:21.840Z,100479.00
2022-11-20T21:41:49.471Z,100470.91
2022-11-20T21:44:30.988Z,100467.50
2022-11-20T21:46:59.475Z,100472.75
2022-11-20T21:49:27.254Z,100462.09
2022-11-20T21:51:54.915Z,100460.66
2022-11-20T21:54:23.113Z,100462.06
2022-11-20T21:56:51.094Z,100461.09
2022-11-20T21:59:18.762Z,100447.28
2022-11-20T22:01:46.848Z,100446.50
2022-11-20T22:04:17.978Z,100453.38
2022-11-20T22:06:45.787Z,100457.59
2022-11-20T22:09:14.096Z,100453.84
2022-11-20T22:11:41.841Z,100444.72
2022-11-20T22:14:21.015Z,100449.53
2022-11-20T22:16:50.986Z,100449.34
2022-11-20T22:19:20.720Z,100444.16
2022-11-20T22:21:50.660Z,100443.94
2022-11-20T22:24:20.368Z,100446.47
2022-11-20T22:26:48.326Z,100437.72
2022-11-20T22:29:18.203Z,100442.81
2022-11-20T22:31:46.437Z,100438.59
2022-11-20T22:34:14.622Z,100427.94
2022-11-20T22:36:42.824Z,100425.25
2022-11-20T22:39:10.553Z,100418.22
2022-11-20T22:41:38.196Z,100419.84
2022-11-20T22:44:07.860Z,100414.94
2022-11-20T22:46:36.303Z,100409.78
2022-11-20T22:49:07.432Z,100399.50
2022-11-20T22:51:38.281Z,100403.31
2022-11-20T22:54:06.662Z,100384.31
2022-11-20T22:56:34.928Z,100367.81
2022-11-20T22:59:02.665Z,100373.91
2022-11-20T23:01:35.558Z,100378.94
2022-11-20T23:04:06.117Z,100377.94
2022-11-20T23:06:35.802Z,100379.56
2022-11-20T23:09:05.118Z,100377.72
2022-11-20T23:11:33.267Z,100370.47
2022-11-20T23:14:12.293Z,100367.53
2022-11-20T23:16:40.150Z,100372.34
2022-11-20T23:19:10.799Z,100378.16
2022-11-20T23:21:41.323Z,100375.50
2022-11-20T23:24:09.962Z,100370.81
2022-11-20T23:26:40.761Z,100369.75
2022-11-20T23:29:08.928Z,100371.47
2022-11-20T23:31:37.438Z,100369.50
2022-11-20T23:34:05.379Z,100347.88
2022-11-20T23:36:33.129Z,100367.56
2022-11-20T23:39:00.807Z,100370.25
2022-11-20T23:41:28.367Z,100368.41
2022-11-20T23:43:56.223Z,100367.34
2022-11-20T23:46:23.785Z,100365.66
2022-11-20T23:48:51.397Z,100367.91
2022-11-20T23:51:19.238Z,100362.72
2022-11-20T23:53:48.198Z,100350.13
2022-11-20T23:56:15.861Z,100360.56
2022-11-20T23:58:44.324Z,100339.91
